sensor_id;sensor_type;location;lat;lon;timestamp;temperature;humidity
12632;DHT22;6381;45.748;12.106;2023-02-05T00:00:31;8.50;72.20
12632;DHT22;6381;45.748;12.106;2023-02-05T00:03:00;8.40;71.30
12632;DHT22;6381;45.748;12.106;2023-02-05T00:05:28;8.50;70.30
12632;DHT22;6381;45.748;12.106;2023-02-05T00:07:57;8.40;70.80
12632;DHT22;6381;45.748;12.106;2023-02-05T00:10:26;8.20;70.40
12632;DHT22;6381;45.748;12.106;2023-02-05T00:12:56;8.40;70.90
12632;DHT22;6381;45.748;12.106;2023-02-05T00:15:24;8.10;71.50
12632;DHT22;6381;45.748;12.106;2023-02-05T00:17:53;8.10;72.40
12632;DHT22;6381;45.748;12.106;2023-02-05T00:20:22;8.20;72.50
12632;DHT22;6381;45.748;12.106;2023-02-05T00:22:50;8.30;71.70
12632;DHT22;6381;45.748;12.106;2023-02-05T00:25:19;8.50;71.90
12632;DHT22;6381;45.748;12.106;2023-02-05T00:27:47;8.50;71.70
12632;DHT22;6381;45.748;12.106;2023-02-05T00:30:18;8.40;72.00
12632;DHT22;6381;45.748;12.106;2023-02-05T00:32:47;8.30;71.70
12632;DHT22;6381;45.748;12.106;2023-02-05T00:35:16;8.50;72.70
12632;DHT22;6381;45.748;12.106;2023-02-05T00:37:45;8.30;71.60
12632;DHT22;6381;45.748;12.106;2023-02-05T00:40:13;8.20;71.30
12632;DHT22;6381;45.748;12.106;2023-02-05T00:42:42;8.30;70.30
12632;DHT22;6381;45.748;12.106;2023-02-05T00:45:10;8.40;69.50
12632;DHT22;6381;45.748;12.106;2023-02-05T00:47:40;8.00;69.30
12632;DHT22;6381;45.748;12.106;2023-02-05T00:50:09;8.00;67.90
12632;DHT22;6381;45.748;12.106;2023-02-05T00:52:38;8.30;69.30
12632;DHT22;6381;45.748;12.106;2023-02-05T00:55:07;8.20;70.60
12632;DHT22;6381;45.748;12.106;2023-02-05T00:57:36;8.20;70.20
12632;DHT22;6381;45.748;12.106;2023-02-05T01:00:05;8.00;70.30
12632;DHT22;6381;45.748;12.106;2023-02-05T01:02:35;8.10;72.20
12632;DHT22;6381;45.748;12.106;2023-02-05T01:05:06;8.00;73.40
12632;DHT22;6381;45.748;12.106;2023-02-05T01:07:35;8.00;72.80
12632;DHT22;6381;45.748;12.106;2023-02-05T01:10:04;7.90;71.70
12632;DHT22;6381;45.748;12.106;2023-02-05T01:12:33;8.00;71.90
12632;DHT22;6381;45.748;12.106;2023-02-05T01:15:04;8.10;72.00
12632;DHT22;6381;45.748;12.106;2023-02-05T01:17:34;7.90;70.10
12632;DHT22;6381;45.748;12.106;2023-02-05T01:20:05;7.80;70.60
12632;DHT22;6381;45.748;12.106;2023-02-05T01:22:34;8.10;72.50
12632;DHT22;6381;45.748;12.106;2023-02-05T01:25:03;8.00;74.40
12632;DHT22;6381;45.748;12.106;2023-02-05T01:27:32;8.10;74.20
12632;DHT22;6381;45.748;12.106;2023-02-05T01:30:01;8.10;73.20
12632;DHT22;6381;45.748;12.106;2023-02-05T01:32:29;8.10;72.60
12632;DHT22;6381;45.748;12.106;2023-02-05T01:34:58;8.00;72.90
12632;DHT22;6381;45.748;12.106;2023-02-05T01:37:28;8.00;72.50
12632;DHT22;6381;45.748;12.106;2023-02-05T01:39:57;8.20;73.30
12632;DHT22;6381;45.748;12.106;2023-02-05T01:42:28;8.10;73.00
12632;DHT22;6381;45.748;12.106;2023-02-05T01:48:21;8.00;69.80
12632;DHT22;6381;45.748;12.106;2023-02-05T01:50:55;8.00;70.80
12632;DHT22;6381;45.748;12.106;2023-02-05T01:53:28;8.00;70.70
12632;DHT22;6381;45.748;12.106;2023-02-05T01:56:00;8.10;69.90
12632;DHT22;6381;45.748;12.106;2023-02-05T01:58:31;7.80;70.80
12632;DHT22;6381;45.748;12.106;2023-02-05T02:01:01;7.90;71.00
12632;DHT22;6381;45.748;12.106;2023-02-05T02:03:30;7.80;71.80
12632;DHT22;6381;45.748;12.106;2023-02-05T02:05:59;7.50;72.00
12632;DHT22;6381;45.748;12.106;2023-02-05T02:08:30;7.50;73.00
12632;DHT22;6381;45.748;12.106;2023-02-05T02:11:01;7.60;74.50
12632;DHT22;6381;45.748;12.106;2023-02-05T02:13:33;7.50;75.30
12632;DHT22;6381;45.748;12.106;2023-02-05T02:16:05;7.60;76.30
12632;DHT22;6381;45.748;12.106;2023-02-05T02:18:35;7.50;77.20
12632;DHT22;6381;45.748;12.106;2023-02-05T02:24:36;7.60;79.50
12632;DHT22;6381;45.748;12.106;2023-02-05T02:27:43;7.50;80.90
12632;DHT22;6381;45.748;12.106;2023-02-05T02:30:17;7.40;81.80
12632;DHT22;6381;45.748;12.106;2023-02-05T02:32:53;7.30;82.70
12632;DHT22;6381;45.748;12.106;2023-02-05T02:35:28;7.30;83.30
12632;DHT22;6381;45.748;12.106;2023-02-05T02:38:05;7.20;84.00
12632;DHT22;6381;45.748;12.106;2023-02-05T02:40:40;7.20;84.70
12632;DHT22;6381;45.748;12.106;2023-02-05T02:43:15;7.20;85.10
12632;DHT22;6381;45.748;12.106;2023-02-05T02:45:50;7.00;86.50
12632;DHT22;6381;45.748;12.106;2023-02-05T02:48:23;7.00;87.10
12632;DHT22;6381;45.748;12.106;2023-02-05T02:50:53;7.00;87.50
12632;DHT22;6381;45.748;12.106;2023-02-05T02:53:26;6.90;87.00
12632;DHT22;6381;45.748;12.106;2023-02-05T02:55:56;7.10;87.10
12632;DHT22;6381;45.748;12.106;2023-02-05T02:58:31;7.10;86.80
12632;DHT22;6381;45.748;12.106;2023-02-05T03:01:01;7.00;87.30
12632;DHT22;6381;45.748;12.106;2023-02-05T03:03:36;6.90;88.20
12632;DHT22;6381;45.748;12.106;2023-02-05T03:06:06;7.00;87.80
12632;DHT22;6381;45.748;12.106;2023-02-05T03:08:43;7.00;87.10
12632;DHT22;6381;45.748;12.106;2023-02-05T03:11:14;7.00;87.20
12632;DHT22;6381;45.748;12.106;2023-02-05T03:13:45;7.00;87.00
12632;DHT22;6381;45.748;12.106;2023-02-05T03:16:19;7.00;87.00
12632;DHT22;6381;45.748;12.106;2023-02-05T03:18:48;7.00;86.60
12632;DHT22;6381;45.748;12.106;2023-02-05T03:21:18;7.20;86.50
12632;DHT22;6381;45.748;12.106;2023-02-05T03:23:50;7.20;86.90
12632;DHT22;6381;45.748;12.106;2023-02-05T03:26:22;7.10;86.80
12632;DHT22;6381;45.748;12.106;2023-02-05T03:29:01;7.10;87.20
12632;DHT22;6381;45.748;12.106;2023-02-05T03:31:36;7.10;87.30
12632;DHT22;6381;45.748;12.106;2023-02-05T03:34:21;7.00;87.20
12632;DHT22;6381;45.748;12.106;2023-02-05T03:37:06;7.00;86.70
12632;DHT22;6381;45.748;12.106;2023-02-05T03:39:47;7.20;86.10
12632;DHT22;6381;45.748;12.106;2023-02-05T03:42:26;7.00;86.10
12632;DHT22;6381;45.748;12.106;2023-02-05T03:45:19;7.20;86.50
12632;DHT22;6381;45.748;12.106;2023-02-05T03:48:02;7.20;85.80
12632;DHT22;6381;45.748;12.106;2023-02-05T03:50:38;7.20;86.00
12632;DHT22;6381;45.748;12.106;2023-02-05T03:53:13;7.10;86.60
12632;DHT22;6381;45.748;12.106;2023-02-05T03:55:51;7.00;87.40
12632;DHT22;6381;45.748;12.106;2023-02-05T03:58:28;7.10;88.10
12632;DHT22;6381;45.748;12.106;2023-02-05T04:01:00;7.00;88.30
12632;DHT22;6381;45.748;12.106;2023-02-05T04:03:29;7.00;89.10
12632;DHT22;6381;45.748;12.106;2023-02-05T04:05:58;6.90;89.30
12632;DHT22;6381;45.748;12.106;2023-02-05T04:08:27;6.90;89.60
12632;DHT22;6381;45.748;12.106;2023-02-05T04:10:56;6.90;90.10
12632;DHT22;6381;45.748;12.106;2023-02-05T04:13:26;7.00;90.20
12632;DHT22;6381;45.748;12.106;2023-02-05T04:15:55;7.00;90.10
12632;DHT22;6381;45.748;12.106;2023-02-05T04:18:25;7.00;90.20
12632;DHT22;6381;45.748;12.106;2023-02-05T04:20:55;6.80;90.10
12632;DHT22;6381;45.748;12.106;2023-02-05T04:23:27;6.90;90.20
12632;DHT22;6381;45.748;12.106;2023-02-05T04:25:56;6.80;90.30
12632;DHT22;6381;45.748;12.106;2023-02-05T04:28:32;6.90;90.20
12632;DHT22;6381;45.748;12.106;2023-02-05T04:31:06;6.80;90.30
12632;DHT22;6381;45.748;12.106;2023-02-05T04:33:38;6.90;90.60
12632;DHT22;6381;45.748;12.106;2023-02-05T04:36:09;6.90;90.60
12632;DHT22;6381;45.748;12.106;2023-02-05T04:38:38;6.90;90.40
12632;DHT22;6381;45.748;12.106;2023-02-05T04:41:07;6.90;90.30
12632;DHT22;6381;45.748;12.106;2023-02-05T04:43:36;7.00;90.30
12632;DHT22;6381;45.748;12.106;2023-02-05T04:46:05;6.90;90.30
12632;DHT22;6381;45.748;12.106;2023-02-05T04:48:34;7.00;90.20
12632;DHT22;6381;45.748;12.106;2023-02-05T04:51:07;6.90;90.10
12632;DHT22;6381;45.748;12.106;2023-02-05T04:53:36;6.70;90.10
12632;DHT22;6381;45.748;12.106;2023-02-05T04:56:06;7.00;90.40
12632;DHT22;6381;45.748;12.106;2023-02-05T04:58:35;6.90;90.00
12632;DHT22;6381;45.748;12.106;2023-02-05T05:01:04;6.90;90.10
12632;DHT22;6381;45.748;12.106;2023-02-05T05:03:38;6.90;90.10
12632;DHT22;6381;45.748;12.106;2023-02-05T05:06:08;7.00;90.00
12632;DHT22;6381;45.748;12.106;2023-02-05T05:08:37;7.10;90.00
12632;DHT22;6381;45.748;12.106;2023-02-05T05:11:07;6.90;89.70
12632;DHT22;6381;45.748;12.106;2023-02-05T05:13:36;7.00;89.90
12632;DHT22;6381;45.748;12.106;2023-02-05T05:16:06;7.20;89.90
12632;DHT22;6381;45.748;12.106;2023-02-05T05:18:35;7.00;89.30
12632;DHT22;6381;45.748;12.106;2023-02-05T05:21:04;7.10;89.40
12632;DHT22;6381;45.748;12.106;2023-02-05T05:23:35;6.90;89.60
12632;DHT22;6381;45.748;12.106;2023-02-05T05:26:05;6.90;90.10
12632;DHT22;6381;45.748;12.106;2023-02-05T05:28:34;6.80;90.00
12632;DHT22;6381;45.748;12.106;2023-02-05T05:31:07;6.70;90.20
12632;DHT22;6381;45.748;12.106;2023-02-05T05:33:36;6.90;90.20
12632;DHT22;6381;45.748;12.106;2023-02-05T05:36:06;7.00;90.10
12632;DHT22;6381;45.748;12.106;2023-02-05T05:38:36;6.90;89.90
12632;DHT22;6381;45.748;12.106;2023-02-05T05:41:05;6.90;90.00
12632;DHT22;6381;45.748;12.106;2023-02-05T05:43:52;7.20;90.40
12632;DHT22;6381;45.748;12.106;2023-02-05T05:46:23;6.80;90.20
12632;DHT22;6381;45.748;12.106;2023-02-05T05:48:54;6.70;90.30
12632;DHT22;6381;45.748;12.106;2023-02-05T05:51:23;6.70;90.70
12632;DHT22;6381;45.748;12.106;2023-02-05T05:53:55;6.80;90.80
12632;DHT22;6381;45.748;12.106;2023-02-05T05:56:24;6.70;90.40
12632;DHT22;6381;45.748;12.106;2023-02-05T05:58:53;6.60;90.50
12632;DHT22;6381;45.748;12.106;2023-02-05T06:01:21;6.70;90.60
12632;DHT22;6381;45.748;12.106;2023-02-05T06:03:50;6.90;90.20
12632;DHT22;6381;45.748;12.106;2023-02-05T06:06:19;6.70;90.20
12632;DHT22;6381;45.748;12.106;2023-02-05T06:08:47;6.70;90.40
12632;DHT22;6381;45.748;12.106;2023-02-05T06:11:17;6.80;90.30
12632;DHT22;6381;45.748;12.106;2023-02-05T06:13:46;6.80;90.10
12632;DHT22;6381;45.748;12.106;2023-02-05T06:16:14;7.00;90.20
12632;DHT22;6381;45.748;12.106;2023-02-05T06:18:43;7.20;90.50
12632;DHT22;6381;45.748;12.106;2023-02-05T06:21:11;7.20;90.50
12632;DHT22;6381;45.748;12.106;2023-02-05T06:23:40;7.20;90.70
12632;DHT22;6381;45.748;12.106;2023-02-05T06:26:09;7.10;91.10
12632;DHT22;6381;45.748;12.106;2023-02-05T06:28:39;7.30;91.10
12632;DHT22;6381;45.748;12.106;2023-02-05T06:31:07;7.50;91.10
12632;DHT22;6381;45.748;12.106;2023-02-05T06:33:36;7.10;90.30
12632;DHT22;6381;45.748;12.106;2023-02-05T06:36:05;7.00;90.00
12632;DHT22;6381;45.748;12.106;2023-02-05T06:38:34;7.20;90.10
12632;DHT22;6381;45.748;12.106;2023-02-05T06:41:03;7.50;90.30
12632;DHT22;6381;45.748;12.106;2023-02-05T06:43:32;7.50;90.50
12632;DHT22;6381;45.748;12.106;2023-02-05T06:46:02;7.30;90.60
12632;DHT22;6381;45.748;12.106;2023-02-05T06:48:30;7.40;90.50
12632;DHT22;6381;45.748;12.106;2023-02-05T06:50:59;7.20;90.50
12632;DHT22;6381;45.748;12.106;2023-02-05T06:53:27;7.20;90.90
12632;DHT22;6381;45.748;12.106;2023-02-05T06:55:57;6.80;90.60
12632;DHT22;6381;45.748;12.106;2023-02-05T06:58:26;6.30;90.90
12632;DHT22;6381;45.748;12.106;2023-02-05T07:00:54;6.00;90.80
12632;DHT22;6381;45.748;12.106;2023-02-05T07:03:24;5.90;90.90
12632;DHT22;6381;45.748;12.106;2023-02-05T07:05:53;6.10;90.80
12632;DHT22;6381;45.748;12.106;2023-02-05T07:08:22;6.00;90.40
12632;DHT22;6381;45.748;12.106;2023-02-05T07:10:50;6.00;89.90
12632;DHT22;6381;45.748;12.106;2023-02-05T07:13:19;5.90;89.60
12632;DHT22;6381;45.748;12.106;2023-02-05T07:15:47;6.00;89.70
12632;DHT22;6381;45.748;12.106;2023-02-05T07:18:16;6.00;88.60
12632;DHT22;6381;45.748;12.106;2023-02-05T07:20:47;6.10;88.50
12632;DHT22;6381;45.748;12.106;2023-02-05T07:23:16;6.10;88.20
12632;DHT22;6381;45.748;12.106;2023-02-05T07:25:45;5.90;87.30
12632;DHT22;6381;45.748;12.106;2023-02-05T07:28:13;6.00;87.50
12632;DHT22;6381;45.748;12.106;2023-02-05T07:30:42;6.00;87.40
12632;DHT22;6381;45.748;12.106;2023-02-05T07:33:11;6.00;87.30
12632;DHT22;6381;45.748;12.106;2023-02-05T07:35:39;5.80;87.60
12632;DHT22;6381;45.748;12.106;2023-02-05T07:38:09;5.80;88.10
12632;DHT22;6381;45.748;12.106;2023-02-05T07:40:38;5.90;88.40
12632;DHT22;6381;45.748;12.106;2023-02-05T07:43:06;6.00;88.10
12632;DHT22;6381;45.748;12.106;2023-02-05T07:45:35;6.10;87.20
12632;DHT22;6381;45.748;12.106;2023-02-05T07:48:03;6.00;86.60
12632;DHT22;6381;45.748;12.106;2023-02-05T07:50:32;6.10;85.90
12632;DHT22;6381;45.748;12.106;2023-02-05T07:53:01;6.20;85.40
12632;DHT22;6381;45.748;12.106;2023-02-05T07:55:31;6.40;84.00
12632;DHT22;6381;45.748;12.106;2023-02-05T07:58:00;6.30;83.60
12632;DHT22;6381;45.748;12.106;2023-02-05T08:00:28;5.90;83.20
12632;DHT22;6381;45.748;12.106;2023-02-05T08:02:57;5.90;84.00
12632;DHT22;6381;45.748;12.106;2023-02-05T08:05:26;5.80;84.70
12632;DHT22;6381;45.748;12.106;2023-02-05T08:07:54;5.90;84.60
12632;DHT22;6381;45.748;12.106;2023-02-05T08:10:23;5.90;84.10
12632;DHT22;6381;45.748;12.106;2023-02-05T08:12:53;5.90;83.80
12632;DHT22;6381;45.748;12.106;2023-02-05T08:15:21;5.80;83.90
12632;DHT22;6381;45.748;12.106;2023-02-05T08:17:50;5.80;83.80
12632;DHT22;6381;45.748;12.106;2023-02-05T08:20:19;5.70;83.50
12632;DHT22;6381;45.748;12.106;2023-02-05T08:22:48;5.90;82.60
12632;DHT22;6381;45.748;12.106;2023-02-05T08:25:17;5.80;81.90
12632;DHT22;6381;45.748;12.106;2023-02-05T08:27:45;5.90;82.80
12632;DHT22;6381;45.748;12.106;2023-02-05T08:30:17;5.90;80.80
12632;DHT22;6381;45.748;12.106;2023-02-05T08:32:48;6.10;79.80
12632;DHT22;6381;45.748;12.106;2023-02-05T08:35:17;6.00;78.90
12632;DHT22;6381;45.748;12.106;2023-02-05T08:37:46;5.90;79.50
12632;DHT22;6381;45.748;12.106;2023-02-05T08:40:14;6.00;79.20
12632;DHT22;6381;45.748;12.106;2023-02-05T08:42:43;6.20;77.40
12632;DHT22;6381;45.748;12.106;2023-02-05T08:45:12;6.30;76.80
12632;DHT22;6381;45.748;12.106;2023-02-05T08:47:42;6.10;76.80
12632;DHT22;6381;45.748;12.106;2023-02-05T08:50:11;6.00;76.40
12632;DHT22;6381;45.748;12.106;2023-02-05T08:52:41;6.00;77.10
12632;DHT22;6381;45.748;12.106;2023-02-05T08:55:10;5.90;77.00
12632;DHT22;6381;45.748;12.106;2023-02-05T08:57:39;5.90;77.10
12632;DHT22;6381;45.748;12.106;2023-02-05T09:00:10;5.90;76.80
12632;DHT22;6381;45.748;12.106;2023-02-05T09:02:42;5.90;76.60
12632;DHT22;6381;45.748;12.106;2023-02-05T09:05:10;5.80;76.20
12632;DHT22;6381;45.748;12.106;2023-02-05T09:07:40;5.90;76.20
12632;DHT22;6381;45.748;12.106;2023-02-05T09:10:12;6.10;75.70
12632;DHT22;6381;45.748;12.106;2023-02-05T09:12:40;5.90;75.30
12632;DHT22;6381;45.748;12.106;2023-02-05T09:15:09;6.00;74.90
12632;DHT22;6381;45.748;12.106;2023-02-05T09:17:38;6.00;75.10
12632;DHT22;6381;45.748;12.106;2023-02-05T09:20:09;6.10;74.50
12632;DHT22;6381;45.748;12.106;2023-02-05T09:22:39;6.10;73.60
12632;DHT22;6381;45.748;12.106;2023-02-05T09:25:07;6.00;74.50
12632;DHT22;6381;45.748;12.106;2023-02-05T09:27:36;6.20;74.00
12632;DHT22;6381;45.748;12.106;2023-02-05T09:30:05;6.10;74.30
12632;DHT22;6381;45.748;12.106;2023-02-05T09:32:34;6.20;73.70
12632;DHT22;6381;45.748;12.106;2023-02-05T09:35:03;6.30;72.50
12632;DHT22;6381;45.748;12.106;2023-02-05T09:37:33;6.20;73.20
12632;DHT22;6381;45.748;12.106;2023-02-05T09:40:02;6.40;71.90
12632;DHT22;6381;45.748;12.106;2023-02-05T09:42:56;6.50;71.40
12632;DHT22;6381;45.748;12.106;2023-02-05T09:45:39;6.30;71.50
12632;DHT22;6381;45.748;12.106;2023-02-05T09:48:48;6.10;71.00
12632;DHT22;6381;45.748;12.106;2023-02-05T09:51:21;6.40;70.10
12632;DHT22;6381;45.748;12.106;2023-02-05T09:53:55;6.20;70.10
12632;DHT22;6381;45.748;12.106;2023-02-05T09:56:26;6.10;70.30
12632;DHT22;6381;45.748;12.106;2023-02-05T09:58:56;6.20;71.50
12632;DHT22;6381;45.748;12.106;2023-02-05T10:01:40;6.10;70.60
12632;DHT22;6381;45.748;12.106;2023-02-05T10:04:11;6.10;71.10
12632;DHT22;6381;45.748;12.106;2023-02-05T10:07:03;6.30;71.20
12632;DHT22;6381;45.748;12.106;2023-02-05T10:10:06;6.30;69.30
12632;DHT22;6381;45.748;12.106;2023-02-05T10:12:48;6.30;69.80
12632;DHT22;6381;45.748;12.106;2023-02-05T10:15:30;6.40;70.60
12632;DHT22;6381;45.748;12.106;2023-02-05T10:18:10;6.40;70.30
12632;DHT22;6381;45.748;12.106;2023-02-05T10:20:51;6.40;70.10
12632;DHT22;6381;45.748;12.106;2023-02-05T10:23:38;6.40;70.30
12632;DHT22;6381;45.748;12.106;2023-02-05T10:26:14;6.50;70.00
12632;DHT22;6381;45.748;12.106;2023-02-05T10:29:03;6.30;69.90
12632;DHT22;6381;45.748;12.106;2023-02-05T10:31:40;6.50;68.90
12632;DHT22;6381;45.748;12.106;2023-02-05T10:34:16;6.60;68.30
12632;DHT22;6381;45.748;12.106;2023-02-05T10:36:49;6.60;69.30
12632;DHT22;6381;45.748;12.106;2023-02-05T10:39:21;6.40;68.80
12632;DHT22;6381;45.748;12.106;2023-02-05T10:41:57;6.60;69.60
12632;DHT22;6381;45.748;12.106;2023-02-05T10:44:30;6.60;67.70
12632;DHT22;6381;45.748;12.106;2023-02-05T10:47:03;6.50;67.50
12632;DHT22;6381;45.748;12.106;2023-02-05T10:49:41;6.50;67.80
12632;DHT22;6381;45.748;12.106;2023-02-05T10:52:13;6.60;68.20
12632;DHT22;6381;45.748;12.106;2023-02-05T10:54:42;6.90;68.00
12632;DHT22;6381;45.748;12.106;2023-02-05T10:57:15;6.80;67.60
12632;DHT22;6381;45.748;12.106;2023-02-05T10:59:51;6.80;67.30
12632;DHT22;6381;45.748;12.106;2023-02-05T11:02:21;6.70;67.90
12632;DHT22;6381;45.748;12.106;2023-02-05T11:04:57;6.80;67.60
12632;DHT22;6381;45.748;12.106;2023-02-05T11:07:32;6.90;66.90
12632;DHT22;6381;45.748;12.106;2023-02-05T11:10:13;6.90;67.80
12632;DHT22;6381;45.748;12.106;2023-02-05T11:12:44;6.70;67.50
12632;DHT22;6381;45.748;12.106;2023-02-05T11:15:22;6.70;68.00
12632;DHT22;6381;45.748;12.106;2023-02-05T11:17:53;6.60;66.50
12632;DHT22;6381;45.748;12.106;2023-02-05T11:20:28;6.70;67.80
12632;DHT22;6381;45.748;12.106;2023-02-05T11:23:13;6.70;67.10
12632;DHT22;6381;45.748;12.106;2023-02-05T11:25:50;7.00;68.50
12632;DHT22;6381;45.748;12.106;2023-02-05T11:28:22;7.00;68.00
12632;DHT22;6381;45.748;12.106;2023-02-05T11:30:53;7.50;68.20
12632;DHT22;6381;45.748;12.106;2023-02-05T11:33:28;7.10;67.50
12632;DHT22;6381;45.748;12.106;2023-02-05T11:36:01;6.90;67.50
12632;DHT22;6381;45.748;12.106;2023-02-05T11:38:34;7.00;67.60
12632;DHT22;6381;45.748;12.106;2023-02-05T11:41:10;7.10;67.10
12632;DHT22;6381;45.748;12.106;2023-02-05T11:43:47;7.20;66.80
12632;DHT22;6381;45.748;12.106;2023-02-05T11:46:18;7.30;66.60
12632;DHT22;6381;45.748;12.106;2023-02-05T11:48:54;7.40;66.40
12632;DHT22;6381;45.748;12.106;2023-02-05T11:51:42;7.30;66.70
12632;DHT22;6381;45.748;12.106;2023-02-05T11:54:18;7.20;65.80
12632;DHT22;6381;45.748;12.106;2023-02-05T11:57:01;7.10;66.70
12632;DHT22;6381;45.748;12.106;2023-02-05T11:59:34;7.20;67.20
12632;DHT22;6381;45.748;12.106;2023-02-05T12:02:31;7.30;66.70
12632;DHT22;6381;45.748;12.106;2023-02-05T12:05:05;7.20;66.60
12632;DHT22;6381;45.748;12.106;2023-02-05T12:07:41;7.20;67.10
12632;DHT22;6381;45.748;12.106;2023-02-05T12:10:17;7.20;66.70
12632;DHT22;6381;45.748;12.106;2023-02-05T12:12:55;7.20;67.10
12632;DHT22;6381;45.748;12.106;2023-02-05T12:15:30;7.30;66.90
12632;DHT22;6381;45.748;12.106;2023-02-05T12:18:12;7.30;66.70
12632;DHT22;6381;45.748;12.106;2023-02-05T12:20:50;7.60;66.90
12632;DHT22;6381;45.748;12.106;2023-02-05T12:23:33;7.60;67.00
12632;DHT22;6381;45.748;12.106;2023-02-05T12:26:23;7.60;66.20
12632;DHT22;6381;45.748;12.106;2023-02-05T12:29:01;7.50;66.30
12632;DHT22;6381;45.748;12.106;2023-02-05T12:31:46;7.30;65.10
12632;DHT22;6381;45.748;12.106;2023-02-05T12:34:21;7.30;65.50
12632;DHT22;6381;45.748;12.106;2023-02-05T12:37:06;7.20;65.70
12632;DHT22;6381;45.748;12.106;2023-02-05T12:39:44;7.30;66.20
12632;DHT22;6381;45.748;12.106;2023-02-05T12:42:25;7.30;66.50
12632;DHT22;6381;45.748;12.106;2023-02-05T12:45:21;7.40;66.60
12632;DHT22;6381;45.748;12.106;2023-02-05T12:48:13;7.30;66.60
12632;DHT22;6381;45.748;12.106;2023-02-05T12:50:57;7.40;66.90
12632;DHT22;6381;45.748;12.106;2023-02-05T12:53:47;3.70;64.60
12632;DHT22;6381;45.748;12.106;2023-02-05T12:56:28;7.00;67.30
12632;DHT22;6381;45.748;12.106;2023-02-05T12:59:00;7.10;66.80
12632;DHT22;6381;45.748;12.106;2023-02-05T13:01:36;7.10;67.40
12632;DHT22;6381;45.748;12.106;2023-02-05T13:04:18;7.20;68.30
12632;DHT22;6381;45.748;12.106;2023-02-05T13:06:51;7.20;68.60
12632;DHT22;6381;45.748;12.106;2023-02-05T13:09:24;7.20;68.60
12632;DHT22;6381;45.748;12.106;2023-02-05T13:12:00;7.20;68.10
12632;DHT22;6381;45.748;12.106;2023-02-05T13:14:37;7.10;68.10
12632;DHT22;6381;45.748;12.106;2023-02-05T13:17:12;7.30;67.80
12632;DHT22;6381;45.748;12.106;2023-02-05T13:19:46;7.50;67.30
12632;DHT22;6381;45.748;12.106;2023-02-05T13:22:20;7.40;66.70
12632;DHT22;6381;45.748;12.106;2023-02-05T13:25:15;7.20;67.90
12632;DHT22;6381;45.748;12.106;2023-02-05T13:28:31;7.20;67.90
12632;DHT22;6381;45.748;12.106;2023-02-05T13:31:19;6.90;68.40
12632;DHT22;6381;45.748;12.106;2023-02-05T13:33:50;7.10;69.00
12632;DHT22;6381;45.748;12.106;2023-02-05T13:39:53;7.30;68.60
12632;DHT22;6381;45.748;12.106;2023-02-05T13:42:49;7.30;69.40
12632;DHT22;6381;45.748;12.106;2023-02-05T13:48:42;7.10;68.60
12632;DHT22;6381;45.748;12.106;2023-02-05T13:51:25;7.00;69.30
12632;DHT22;6381;45.748;12.106;2023-02-05T13:56:56;7.20;69.80
12632;DHT22;6381;45.748;12.106;2023-02-05T13:59:33;7.20;70.10
12632;DHT22;6381;45.748;12.106;2023-02-05T14:02:02;7.20;70.90
12632;DHT22;6381;45.748;12.106;2023-02-05T14:04:36;7.20;70.60
12632;DHT22;6381;45.748;12.106;2023-02-05T14:07:13;7.00;70.30
12632;DHT22;6381;45.748;12.106;2023-02-05T14:09:50;6.90;70.80
12632;DHT22;6381;45.748;12.106;2023-02-05T14:12:25;7.20;70.90
12632;DHT22;6381;45.748;12.106;2023-02-05T14:15:24;7.20;71.20
12632;DHT22;6381;45.748;12.106;2023-02-05T14:18:03;7.30;70.90
12632;DHT22;6381;45.748;12.106;2023-02-05T14:20:34;7.40;69.80
12632;DHT22;6381;45.748;12.106;2023-02-05T14:23:12;7.30;69.80
12632;DHT22;6381;45.748;12.106;2023-02-05T14:28:43;7.20;69.60
12632;DHT22;6381;45.748;12.106;2023-02-05T14:37:33;7.30;71.20
12632;DHT22;6381;45.748;12.106;2023-02-05T14:40:21;7.30;72.00
12632;DHT22;6381;45.748;12.106;2023-02-05T14:42:52;7.30;71.70
12632;DHT22;6381;45.748;12.106;2023-02-05T14:45:42;7.30;72.20
12632;DHT22;6381;45.748;12.106;2023-02-05T14:48:20;7.00;72.00
12632;DHT22;6381;45.748;12.106;2023-02-05T14:51:03;7.20;72.10
12632;DHT22;6381;45.748;12.106;2023-02-05T14:53:35;7.30;72.50
12632;DHT22;6381;45.748;12.106;2023-02-05T14:56:05;7.20;73.00
12632;DHT22;6381;45.748;12.106;2023-02-05T14:58:36;6.90;73.60
12632;DHT22;6381;45.748;12.106;2023-02-05T15:01:44;7.10;73.90
12632;DHT22;6381;45.748;12.106;2023-02-05T15:04:36;6.90;72.90
12632;DHT22;6381;45.748;12.106;2023-02-05T15:07:12;7.10;73.80
12632;DHT22;6381;45.748;12.106;2023-02-05T15:09:45;6.80;74.20
12632;DHT22;6381;45.748;12.106;2023-02-05T15:15:29;6.70;74.10
12632;DHT22;6381;45.748;12.106;2023-02-05T15:18:13;6.80;75.00
12632;DHT22;6381;45.748;12.106;2023-02-05T15:20:45;6.90;74.10
12632;DHT22;6381;45.748;12.106;2023-02-05T15:23:30;6.90;73.80
12632;DHT22;6381;45.748;12.106;2023-02-05T15:26:04;7.00;74.60
12632;DHT22;6381;45.748;12.106;2023-02-05T15:28:37;7.00;75.10
12632;DHT22;6381;45.748;12.106;2023-02-05T15:31:18;7.10;74.90
12632;DHT22;6381;45.748;12.106;2023-02-05T15:33:57;7.00;73.90
12632;DHT22;6381;45.748;12.106;2023-02-05T15:36:33;7.10;74.10
12632;DHT22;6381;45.748;12.106;2023-02-05T15:39:13;7.30;74.10
12632;DHT22;6381;45.748;12.106;2023-02-05T15:41:46;7.40;73.90
12632;DHT22;6381;45.748;12.106;2023-02-05T15:44:21;7.40;73.80
12632;DHT22;6381;45.748;12.106;2023-02-05T15:46:51;7.20;74.00
12632;DHT22;6381;45.748;12.106;2023-02-05T15:49:28;7.20;74.50
12632;DHT22;6381;45.748;12.106;2023-02-05T15:51:59;7.10;74.60
12632;DHT22;6381;45.748;12.106;2023-02-05T15:54:28;7.20;75.00
12632;DHT22;6381;45.748;12.106;2023-02-05T15:56:59;6.90;75.20
12632;DHT22;6381;45.748;12.106;2023-02-05T15:59:30;7.00;74.40
12632;DHT22;6381;45.748;12.106;2023-02-05T16:02:02;7.00;74.60
12632;DHT22;6381;45.748;12.106;2023-02-05T16:04:35;7.20;74.60
12632;DHT22;6381;45.748;12.106;2023-02-05T16:07:16;7.10;75.00
12632;DHT22;6381;45.748;12.106;2023-02-05T16:09:47;7.10;75.20
12632;DHT22;6381;45.748;12.106;2023-02-05T16:12:18;6.90;75.60
12632;DHT22;6381;45.748;12.106;2023-02-05T16:14:57;6.90;76.10
12632;DHT22;6381;45.748;12.106;2023-02-05T16:17:33;6.70;76.30
12632;DHT22;6381;45.748;12.106;2023-02-05T16:20:19;6.90;76.80
12632;DHT22;6381;45.748;12.106;2023-02-05T16:22:51;6.80;76.90
12632;DHT22;6381;45.748;12.106;2023-02-05T16:25:38;6.90;77.00
12632;DHT22;6381;45.748;12.106;2023-02-05T16:28:14;6.70;76.50
12632;DHT22;6381;45.748;12.106;2023-02-05T16:30:45;6.90;77.00
12632;DHT22;6381;45.748;12.106;2023-02-05T16:33:24;6.90;78.30
12632;DHT22;6381;45.748;12.106;2023-02-05T16:35:57;7.00;77.50
12632;DHT22;6381;45.748;12.106;2023-02-05T16:38:26;7.10;77.10
12632;DHT22;6381;45.748;12.106;2023-02-05T16:40:58;7.10;76.30
12632;DHT22;6381;45.748;12.106;2023-02-05T16:43:30;7.00;77.60
12632;DHT22;6381;45.748;12.106;2023-02-05T16:46:24;7.10;76.90
12632;DHT22;6381;45.748;12.106;2023-02-05T16:48:56;7.00;76.70
12632;DHT22;6381;45.748;12.106;2023-02-05T16:51:33;7.10;77.00
12632;DHT22;6381;45.748;12.106;2023-02-05T16:54:24;7.20;77.20